createdAt,value
2022-10-10T00:01:41.180Z,100504.00
2022-10-10T00:06:45.556Z,100505.38
2022-10-10T00:11:48.414Z,100491.59
2022-10-10T00:16:51.173Z,100490.72
2022-10-10T00:21:55.102Z,100489.97
2022-10-10T00:26:57.957Z,100484.53
2022-10-10T00:32:00.760Z,100485.47
2022-10-10T00:37:04.704Z,100475.19
2022-10-10T00:42:07.630Z,100473.50
2022-10-10T00:47:11.011Z,100468.16
2022-10-10T00:52:15.153Z,100471.69
2022-10-10T00:57:17.957Z,100471.78
2022-10-10T01:02:20.573Z,100467.91
2022-10-10T01:07:28.576Z,100459.97
2022-10-10T01:12:39.036Z,100457.09
2022-10-10T01:17:47.139Z,100456.63
2022-10-10T01:23:03.718Z,100459.00
2022-10-10T01:28:20.829Z,100456.72
2022-10-10T01:33:30.438Z,100448.72
2022-10-10T01:38:39.539Z,100438.72
2022-10-10T01:43:43.731Z,100438.84
2022-10-10T01:48:50.174Z,100435.63
2022-10-10T01:54:02.164Z,100441.06
2022-10-10T01:59:16.062Z,100426.84
2022-10-10T02:04:24.013Z,100423.25
2022-10-10T02:09:32.527Z,100416.91
2022-10-10T02:14:42.002Z,100414.03
2022-10-10T02:19:49.598Z,100414.38
2022-10-10T02:24:53.815Z,100407.97
2022-10-10T02:30:00.366Z,100410.97
2022-10-10T02:35:09.276Z,100412.88
2022-10-10T02:40:15.878Z,100402.00
2022-10-10T02:45:21.016Z,100397.59
2022-10-10T02:50:24.481Z,100390.97
2022-10-10T02:55:27.881Z,100386.50
2022-10-10T03:00:32.064Z,100388.28
2022-10-10T03:05:34.903Z,100379.34
2022-10-10T03:10:38.313Z,100380.28
2022-10-10T03:15:42.486Z,100375.66
2022-10-10T03:20:46.508Z,100376.22
2022-10-10T03:25:49.449Z,100373.25
2022-10-10T03:30:53.804Z,100372.13
2022-10-10T03:35:56.564Z,100373.72
2022-10-10T03:40:59.134Z,100365.69
2022-10-10T03:46:03.325Z,100362.75
2022-10-10T03:51:06.440Z,100362.97
2022-10-10T03:56:09.314Z,100352.06
2022-10-10T04:01:14.323Z,100348.53
2022-10-10T04:06:17.353Z,100348.13
2022-10-10T04:11:20.103Z,100339.72
2022-10-10T04:16:24.073Z,100345.16
2022-10-10T04:21:26.906Z,100334.38
2022-10-10T04:26:29.713Z,100336.19
2022-10-10T04:31:33.923Z,100337.56
2022-10-10T04:36:36.837Z,100326.75
2022-10-10T04:41:39.620Z,100324.72
2022-10-10T04:46:43.524Z,100323.41
2022-10-10T04:51:46.277Z,100311.66
2022-10-10T04:56:48.862Z,100314.78
2022-10-10T05:01:53.060Z,100316.06
2022-10-10T05:06:55.908Z,100315.75
2022-10-10T05:11:58.711Z,100319.00
2022-10-10T05:17:02.642Z,100317.19
2022-10-10T05:22:05.469Z,100316.03
2022-10-10T05:27:08.038Z,100313.16
2022-10-10T05:32:12.227Z,100321.88
2022-10-10T05:37:15.110Z,100311.94
2022-10-10T05:42:17.933Z,100318.63
2022-10-10T05:47:26.756Z,100312.53
2022-10-10T05:52:31.137Z,100305.19
2022-10-10T05:57:33.886Z,100308.69
2022-10-10T06:02:38.091Z,100315.59
2022-10-10T06:08:03.544Z,100315.25
2022-10-10T06:13:03.837Z,100309.78
2022-10-10T06:18:08.988Z,100318.56
2022-10-10T06:23:11.760Z,100319.00
2022-10-10T06:28:14.419Z,100320.47
2022-10-10T06:33:19.658Z,100316.56
2022-10-10T06:38:22.484Z,100318.44
2022-10-10T06:43:25.061Z,100318.31
2022-10-10T06:48:31.341Z,100320.75
2022-10-10T06:53:34.668Z,100330.00
2022-10-10T06:58:37.459Z,100325.69
2022-10-10T07:03:41.497Z,100322.19
2022-10-10T07:08:44.288Z,100315.81
2022-10-10T07:13:47.176Z,100299.16
2022-10-10T07:18:51.690Z,100303.28
2022-10-10T07:23:54.582Z,100300.75
2022-10-10T07:28:57.460Z,100312.00
2022-10-10T07:34:01.764Z,100307.19
2022-10-10T07:39:04.728Z,100300.16
2022-10-10T07:44:07.481Z,100298.75
2022-10-10T07:49:11.434Z,100283.19
2022-10-10T07:54:14.257Z,100296.88
2022-10-10T07:59:17.093Z,100309.94
2022-10-10T08:04:21.635Z,100309.53
2022-10-10T08:09:25.248Z,100307.44
2022-10-10T08:14:28.218Z,100301.91
2022-10-10T08:19:32.387Z,100300.09
2022-10-10T08:24:35.249Z,100288.59
2022-10-10T08:29:37.984Z,100287.81
2022-10-10T08:34:42.115Z,100277.19
2022-10-10T08:39:44.827Z,100276.72
2022-10-10T08:44:52.824Z,100278.94
2022-10-10T08:50:01.817Z,100278.47
2022-10-10T08:55:13.010Z,100283.22
2022-10-10T09:00:19.982Z,100274.88
2022-10-10T09:05:37.034Z,100268.31
2022-10-10T09:10:50.716Z,100283.75
2022-10-10T09:15:58.911Z,100272.03
2022-10-10T09:21:09.788Z,100279.16
2022-10-10T09:26:14.640Z,100276.38
2022-10-10T09:31:20.188Z,100274.81
2022-10-10T09:36:28.130Z,100258.13
2022-10-10T09:41:36.772Z,100259.91
2022-10-10T09:46:39.831Z,100287.09
2022-10-10T09:51:44.207Z,100276.59
2022-10-10T09:56:51.644Z,100286.75
2022-10-10T10:02:03.503Z,100294.28
2022-10-10T10:07:18.825Z,100286.53
2022-10-10T10:12:24.307Z,100290.63
2022-10-10T10:17:27.338Z,100292.66
2022-10-10T10:22:38.410Z,100288.97
2022-10-10T10:27:41.201Z,100297.66
2022-10-10T10:32:54.489Z,100291.41
2022-10-10T10:38:19.385Z,100295.97
2022-10-10T10:43:38.902Z,100289.88
2022-10-10T10:48:46.003Z,100298.03
2022-10-10T10:53:55.700Z,100297.66
2022-10-10T11:05:20.137Z,100288.97
2022-10-10T11:10:25.638Z,100277.13
2022-10-10T11:16:01.788Z,100289.78
2022-10-10T11:21:06.216Z,100297.91
2022-10-10T11:26:17.734Z,100285.69
2022-10-10T11:31:25.034Z,100277.31
2022-10-10T11:36:31.270Z,100277.13
2022-10-10T11:41:39.094Z,100273.44
2022-10-10T11:46:47.155Z,100272.47
2022-10-10T11:52:31.951Z,100272.53
2022-10-10T11:57:37.906Z,100270.06
2022-10-10T12:02:42.266Z,100275.25
2022-10-10T12:08:00.616Z,100265.00
2022-10-10T12:13:26.068Z,100249.63
2022-10-10T12:18:39.092Z,100258.19
2022-10-10T12:23:43.227Z,100246.59
2022-10-10T12:29:05.574Z,100261.69
2022-10-10T12:34:16.485Z,100243.94
2022-10-10T12:39:37.747Z,100251.56
2022-10-10T12:44:47.275Z,100245.66
2022-10-10T12:49:50.736Z,100247.56
2022-10-10T12:54:55.267Z,100246.56
2022-10-10T13:00:04.707Z,100259.00
2022-10-10T13:05:11.317Z,100252.66
2022-10-10T13:10:23.485Z,100251.94
2022-10-10T13:15:27.737Z,100251.59
2022-10-10T13:20:35.621Z,100263.88
2022-10-10T13:25:40.367Z,100261.38
2022-10-10T13:30:45.396Z,100267.78
2022-10-10T13:35:49.727Z,100267.84
2022-10-10T13:40:53.439Z,100258.38
2022-10-10T13:45:59.891Z,100267.56
2022-10-10T13:51:05.951Z,100267.50
2022-10-10T13:56:13.831Z,100271.34
2022-10-10T14:01:31.738Z,100269.63
2022-10-10T14:06:35.690Z,100289.88
2022-10-10T14:11:38.458Z,100281.97
2022-10-10T14:16:42.595Z,100294.94
2022-10-10T14:21:45.309Z,100293.63
2022-10-10T14:26:48.172Z,100302.09
2022-10-10T14:31:52.301Z,100299.50
2022-10-10T14:36:55.126Z,100309.47
2022-10-10T14:41:58.580Z,100323.56
2022-10-10T14:47:02.694Z,100315.44
2022-10-10T14:52:05.549Z,100323.03
2022-10-10T14:57:10.296Z,100313.78
2022-10-10T15:02:14.684Z,100317.34
2022-10-10T15:07:17.953Z,100319.84
2022-10-10T15:12:20.708Z,100328.03
2022-10-10T15:17:27.037Z,100348.88
2022-10-10T15:22:30.256Z,100343.63
2022-10-10T15:27:33.268Z,100357.66
2022-10-10T15:32:40.619Z,100356.97
2022-10-10T15:37:43.784Z,100371.72
2022-10-10T15:42:46.512Z,100369.06
2022-10-10T15:47:50.630Z,100374.22
2022-10-10T15:52:53.345Z,100395.72
2022-10-10T15:57:56.140Z,100396.63
2022-10-10T16:03:00.262Z,100401.16
2022-10-10T16:08:03.090Z,100404.84
2022-10-10T16:13:06.025Z,100414.72
2022-10-10T16:18:10.363Z,100430.56
2022-10-10T16:23:13.193Z,100424.31
2022-10-10T16:28:16.021Z,100446.25
2022-10-10T16:33:20.121Z,100461.16
2022-10-10T16:38:22.881Z,100461.44
2022-10-10T16:43:25.704Z,100473.69
2022-10-10T16:48:31.195Z,100493.81
2022-10-10T16:53:34.414Z,100510.03
2022-10-10T16:58:39.537Z,100541.34
2022-10-10T17:03:44.049Z,100537.03
2022-10-10T17:08:47.928Z,100549.63
2022-10-10T17:13:51.851Z,100557.41
2022-10-10T17:18:56.305Z,100561.66
2022-10-10T17:23:59.296Z,100576.28
2022-10-10T17:29:52.325Z,100583.50
2022-10-10T17:34:56.559Z,100580.31
2022-10-10T17:39:59.661Z,100584.72
2022-10-10T17:45:02.715Z,100602.22
2022-10-10T17:50:08.629Z,100606.22
2022-10-10T17:55:11.372Z,100623.44
2022-10-10T18:00:15.232Z,100631.97
2022-10-10T18:05:19.385Z,100647.16
2022-10-10T18:10:22.155Z,100649.06
2022-10-10T18:15:25.033Z,100677.44
2022-10-10T18:20:29.269Z,100689.91
2022-10-10T18:25:32.353Z,100698.47
2022-10-10T18:30:35.085Z,100711.25
2022-10-10T18:35:42.477Z,100725.16
2022-10-10T18:40:45.210Z,100739.47
2022-10-10T18:45:49.659Z,100743.19
2022-10-10T18:50:53.794Z,100759.09
2022-10-10T18:55:57.232Z,100765.13
2022-10-10T19:01:01.252Z,100775.66
2022-10-10T19:06:07.586Z,100780.41
2022-10-10T19:11:20.344Z,100785.78
2022-10-10T19:16:23.130Z,100800.00
2022-10-10T19:21:28.303Z,100803.63
2022-10-10T19:26:33.356Z,100808.03
2022-10-10T19:31:37.246Z,100818.25
2022-10-10T19:36:42.318Z,100828.47
2022-10-10T19:41:45.172Z,100837.91
2022-10-10T19:46:47.765Z,100844.94
2022-10-10T19:51:54.086Z,100853.88
2022-10-10T19:56:57.116Z,100867.47
2022-10-10T20:01:59.916Z,100870.44
2022-10-10T20:07:04.080Z,100890.50
2022-10-10T20:12:09.074Z,100885.63
2022-10-10T20:17:12.722Z,100904.47
2022-10-10T20:22:16.877Z,100905.19
2022-10-10T20:27:19.649Z,100916.16
2022-10-10T20:32:22.267Z,100923.91
2022-10-10T20:37:26.344Z,100927.78
2022-10-10T20:42:29.052Z,100945.91
2022-10-10T20:47:31.640Z,100946.94
2022-10-10T20:52:35.884Z,100950.59
2022-10-10T20:57:38.641Z,100957.25
2022-10-10T21:02:41.252Z,100962.38
2022-10-10T21:07:45.965Z,100974.66
2022-10-10T21:12:48.737Z,100988.00
2022-10-10T21:17:51.338Z,100986.88
2022-10-10T21:22:55.951Z,100997.16
2022-10-10T21:27:58.743Z,100999.94
2022-10-10T21:33:01.386Z,100999.41
2022-10-10T21:38:05.533Z,101012.06
2022-10-10T21:43:08.286Z,101021.38
2022-10-10T21:48:11.748Z,101030.22
2022-10-10T21:53:15.875Z,101021.34
2022-10-10T21:58:18.747Z,101040.41
2022-10-10T22:03:21.340Z,101045.00
2022-10-10T22:08:25.439Z,101043.28
2022-10-10T22:13:28.573Z,101051.78
2022-10-10T22:18:32.128Z,101057.00
2022-10-10T22:23:36.553Z,101058.31
2022-10-10T22:28:39.871Z,101065.66
2022-10-10T22:33:43.042Z,101078.19
2022-10-10T22:38:47.173Z,101086.03
2022-10-10T22:43:50.554Z,101083.44
2022-10-10T22:48:53.782Z,101085.84
2022-10-10T22:53:57.937Z,101077.63
2022-10-10T22:59:00.683Z,101080.03
2022-10-10T23:04:09.309Z,101090.00
2022-10-10T23:09:14.212Z,101086.66
2022-10-10T23:14:18.603Z,101096.69
2022-10-10T23:19:21.330Z,101094.69
2022-10-10T23:24:25.339Z,101107.84
2022-10-10T23:29:28.082Z,101101.47
2022-10-10T23:34:30.673Z,101097.81
2022-10-10T23:39:34.812Z,101094.66
2022-10-10T23:44:37.604Z,101104.31
2022-10-10T23:49:40.174Z,101112.06
2022-10-10T23:54:44.317Z,101121.06
2022-10-10T23:59:47.112Z,101127.22
